Time;durP1;ratioP1;P1;durP2;ratioP2;P2;SDS_P1;SDS_P2;PMS_P1;PMS_P2;Temp;Humidity;BMP_temperature;BMP_pressure;BME280_temperature;BME280_humidity;BME280_pressure;Samples;Min_cycle;Max_cycle;Signal;HPM_P1;HPM_P2
2024/04/21 00:00:32;;;;;;;1.00;1.00;;;;;;;7.40;86.69;98969.31;5491986;26;41835;-78
2024/04/21 00:02:59;;;;;;;1.70;0.90;;;;;;;7.34;86.52;98951.13;5494050;26;41200;-76
2024/04/21 00:05:31;;;;;;;1.37;1.20;;;;;;;7.31;87.29;98935.47;5493906;26;42728;-77
2024/04/21 00:07:57;;;;;;;2.43;1.23;;;;;;;7.39;87.53;98957.06;5491848;26;42867;-76
2024/04/21 00:10:27;;;;;;;1.20;1.10;;;;;;;7.27;87.49;98933.94;5494021;26;41996;-77
2024/04/21 00:12:54;;;;;;;2.60;1.20;;;;;;;7.38;87.60;98939.53;5494191;26;40072;-77
2024/04/21 00:15:23;;;;;;;1.20;1.10;;;;;;;7.20;88.26;98911.44;5493627;26;41687;-77
2024/04/21 00:17:49;;;;;;;1.40;1.07;;;;;;;7.27;88.04;98926.03;5492165;26;41427;-78
2024/04/21 00:20:18;;;;;;;1.67;1.03;;;;;;;7.14;88.39;98904.69;5492179;26;42380;-78
2024/04/21 00:22:49;;;;;;;1.20;1.10;;;;;;;7.35;88.64;98929.13;5494200;26;41170;-78
2024/04/21 00:25:18;;;;;;;3.80;1.20;;;;;;;7.31;89.74;98924.94;5492208;26;41650;-78
2024/04/21 00:27:45;;;;;;;1.93;1.20;;;;;;;7.21;90.13;98906.09;5493737;26;42740;-78
2024/04/21 00:30:14;;;;;;;5.53;1.77;;;;;;;7.24;90.21;98915.63;5491947;26;43290;-77
2024/04/21 00:32:40;;;;;;;1.60;1.13;;;;;;;7.32;89.98;98913.47;5491941;26;41230;-77
2024/04/21 00:35:09;;;;;;;1.40;1.20;;;;;;;7.30;90.05;98904.78;5461535;26;41873;-77
2024/04/21 00:37:36;;;;;;;2.13;1.30;;;;;;;7.23;90.33;98892.84;5493440;26;42929;-77
2024/04/21 00:40:09;;;;;;;1.27;1.17;;;;;;;7.22;90.29;98897.28;5493784;26;42507;-77
2024/04/21 00:42:35;;;;;;;2.47;1.30;;;;;;;7.18;90.17;98881.69;5493842;26;40331;-77
2024/04/21 00:45:05;;;;;;;1.93;1.47;;;;;;;7.22;89.84;98880.59;5491825;26;42275;-77
2024/04/21 00:47:33;;;;;;;1.40;1.30;;;;;;;7.31;90.37;98889.84;5493508;26;42951;-78
2024/04/21 00:50:02;;;;;;;1.13;1.03;;;;;;;7.04;90.14;98849.91;5493545;26;41965;-77
2024/04/21 00:52:30;;;;;;;1.93;1.60;;;;;;;7.29;90.08;98889.94;5493972;26;39881;-77
2024/04/21 00:54:59;;;;;;;1.33;1.23;;;;;;;7.29;90.34;98876.78;5493928;26;42595;-77
2024/04/21 00:57:28;;;;;;;1.97;1.20;;;;;;;7.24;90.02;98865.59;5493696;26;44041;-78
2024/04/21 00:59:58;;;;;;;1.90;1.20;;;;;;;7.31;90.65;98880.16;5493616;26;43269;-78
2024/04/21 01:02:24;;;;;;;2.30;1.33;;;;;;;7.25;90.42;98864.66;5493978;26;39999;-78
2024/04/21 01:04:54;;;;;;;2.13;1.67;;;;;;;7.24;90.61;98862.97;5492062;26;42874;-78
2024/04/21 01:07:20;;;;;;;3.63;1.70;;;;;;;7.21;90.69;98849.94;5493268;26;42928;-78
2024/04/21 01:09:49;;;;;;;2.83;1.43;;;;;;;7.35;90.57;98872.97;5491618;26;42212;-78
2024/04/21 01:12:16;;;;;;;1.50;1.40;;;;;;;7.28;90.09;98850.50;5493754;26;40733;-78
2024/04/21 01:14:47;;;;;;;2.23;1.50;;;;;;;7.36;91.14;98857.09;5491878;26;41741;-78
2024/04/21 01:17:14;;;;;;;1.80;1.50;;;;;;;7.35;90.69;98854.53;5493809;26;42395;-77
2024/04/21 01:19:43;;;;;;;2.17;1.63;;;;;;;7.25;90.66;98848.88;5491829;26;43643;-78
2024/04/21 01:22:10;;;;;;;1.60;1.50;;;;;;;7.24;90.55;98844.53;5493635;26;40321;-78
2024/04/21 01:24:42;;;;;;;3.83;1.70;;;;;;;7.37;90.56;98856.16;5491742;26;40220;-78
2024/04/21 01:27:08;;;;;;;2.43;1.53;;;;;;;7.25;91.02;98829.56;5490888;26;44002;-76
2024/04/21 01:29:37;;;;;;;2.10;1.57;;;;;;;7.26;91.05;98829.50;5493812;26;42147;-78
2024/04/21 01:32:04;;;;;;;2.03;1.80;;;;;;;7.13;91.17;98804.69;5493595;26;41201;-78
2024/04/21 01:34:33;;;;;;;1.90;1.70;;;;;;;7.26;90.90;98824.22;5493491;26;43081;-77
2024/04/21 01:37:00;;;;;;;1.50;1.40;;;;;;;7.33;91.75;98830.88;5493416;26;42771;-77
2024/04/21 01:39:29;;;;;;;2.53;1.73;;;;;;;7.27;91.78;98815.41;5493645;26;41896;-78
2024/04/21 01:41:58;;;;;;;2.43;2.23;;;;;;;7.28;92.17;98819.75;5491483;26;40155;-77
2024/04/21 01:44:27;;;;;;;2.50;1.80;;;;;;;7.35;93.12;98829.03;5493454;26;41756;-78
2024/04/21 01:46:54;;;;;;;3.30;2.30;;;;;;;7.31;93.52;98826.63;5492890;26;43759;-79
2024/04/21 01:49:23;;;;;;;1.93;1.70;;;;;;;7.27;94.45;98831.22;5491978;26;42305;-79
2024/04/21 01:51:49;;;;;;;2.73;1.90;;;;;;;7.11;95.28;98802.13;5493379;26;39987;-79
2024/04/21 01:54:18;;;;;;;2.87;2.53;;;;;;;7.04;95.43;98797.25;5493867;26;41580;-79
2024/04/21 01:56:45;;;;;;;4.03;1.80;;;;;;;7.00;95.28;98791.28;5493263;26;43792;-78
2024/04/21 01:59:17;;;;;;;1.67;1.57;;;;;;;7.07;95.16;98797.09;5493307;26;43082;-78
2024/04/21 02:01:43;;;;;;;1.57;1.47;;;;;;;7.05;95.45;98791.03;5493072;26;39738;-79
2024/04/21 02:04:12;;;;;;;3.17;1.20;;;;;;;7.08;95.45;98796.16;5494063;26;41672;-78
2024/04/21 02:06:40;;;;;;;0.93;0.93;;;;;;;7.02;95.58;98793.84;5493294;26;42904;-78
2024/04/21 02:09:09;;;;;;;1.37;1.00;;;;;;;7.09;96.01;98811.03;5493429;26;42145;-79
2024/04/21 02:11:35;;;;;;;1.17;0.87;;;;;;;6.99;96.45;98805.38;5493053;26;40960;-78
2024/04/21 02:14:04;;;;;;;2.13;1.50;;;;;;;7.03;95.75;98812.19;5460932;26;41933;-78
2024/04/21 02:16:33;;;;;;;0.73;0.67;;;;;;;6.86;96.25;98788.47;5492574;26;43801;-78
2024/04/21 02:19:05;;;;;;;1.03;0.90;;;;;;;7.01;95.76;98816.69;5491205;26;42270;-78
2024/04/21 02:21:31;;;;;;;0.63;0.63;;;;;;;7.01;95.53;98819.31;5492744;26;40152;-77
2024/04/21 02:24:00;;;;;;;0.60;0.60;;;;;;;6.91;95.49;98806.69;5492937;26;41660;-77
2024/04/21 02:26:27;;;;;;;0.63;0.50;;;;;;;6.79;95.13;98793.19;5492420;26;43104;-77
2024/04/21 02:28:56;;;;;;;0.33;0.33;;;;;;;6.90;94.75;98818.13;5492764;26;42145;-77
2024/04/21 02:31:22;;;;;;;0.40;0.30;;;;;;;6.82;94.78;98819.34;5492655;26;41273;-78
2024/04/21 02:33:54;;;;;;;0.50;0.50;;;;;;;6.68;94.55;98790.19;5492513;26;42730;-79
2024/04/21 02:36:21;;;;;;;0.40;0.40;;;;;;;6.77;94.20;98810.81;5492699;26;43949;-78
2024/04/21 02:38:50;;;;;;;0.30;0.30;;;;;;;6.74;94.46;98816.22;5495039;26;42255;-78
2024/04/21 02:41:17;;;;;;;0.33;0.33;;;;;;;6.70;93.90;98804.13;5493784;26;38821;-79
2024/04/21 02:43:46;;;;;;;0.40;0.40;;;;;;;6.66;93.91;98799.09;5493807;26;40370;-79
2024/04/21 02:46:13;;;;;;;0.50;0.50;;;;;;;6.76;93.32;98816.16;5495897;26;43048;-79
2024/04/21 02:48:42;;;;;;;1.03;0.30;;;;;;;6.66;93.33;98792.06;5493644;26;40774;-79
2024/04/21 02:51:11;;;;;;;0.50;0.50;;;;;;;6.62;93.33;98795.75;5495398;26;39741;-79
2024/04/21 02:53:40;;;;;;;0.60;0.60;;;;;;;6.55;92.79;98783.84;5495279;26;41747;-79
2024/04/21 02:56:07;;;;;;;0.30;0.30;;;;;;;6.71;92.89;98811.09;5495390;26;43735;-79
2024/04/21 02:58:36;;;;;;;0.40;0.40;;;;;;;6.68;92.86;98803.34;5463055;26;42278;-78
2024/04/21 03:01:04;;;;;;;0.50;0.50;;;;;;;6.51;93.23;98777.00;5493514;26;40113;-79
2024/04/21 03:03:33;;;;;;;0.87;0.40;;;;;;;6.67;92.62;98804.31;5493803;26;41755;-79
2024/04/21 03:06:00;;;;;;;1.03;0.50;;;;;;;6.50;92.58;98783.19;5495556;26;42640;-79
2024/04/21 03:08:32;;;;;;;1.60;0.40;;;;;;;6.59;92.42;98803.78;5495413;26;42527;-79
2024/04/21 03:10:58;;;;;;;0.50;0.50;;;;;;;6.44;92.33;98786.09;5495555;26;39483;-79
2024/04/21 03:13:27;;;;;;;1.67;0.33;;;;;;;6.43;92.48;98784.38;5493497;26;40500;-80
2024/04/21 03:15:54;;;;;;;0.40;0.40;;;;;;;6.46;92.15;98800.03;5493638;26;43758;-80
2024/04/21 03:18:23;;;;;;;0.50;0.40;;;;;;;6.43;92.66;98797.53;5495406;26;43137;-80
2024/04/21 03:20:56;;;;;;;0.40;0.40;;;;;;;6.37;92.41;98797.84;5493399;26;40151;-80
2024/04/21 03:23:26;;;;;;;1.27;0.40;;;;;;;6.25;92.46;98785.25;5524557;25;42875;-79
2024/04/21 03:25:55;;;;;;;0.30;0.30;;;;;;;6.29;92.28;98792.09;5495105;26;42787;-80
2024/04/21 03:28:24;;;;;;;0.50;0.50;;;;;;;6.08;92.10;98783.38;5495066;26;43366;-79
2024/04/21 03:30:55;;;;;;;1.37;0.33;;;;;;;6.02;91.72;98789.78;5493513;26;38544;-80
2024/04/21 03:33:24;;;;;;;0.50;0.30;;;;;;;5.89;91.66;98783.38;5495472;26;42656;-79
2024/04/21 03:36:04;;;;;;;0.47;0.30;;;;;;;5.77;91.83;98766.34;5524745;25;43839;-80
2024/04/21 03:38:34;;;;;;;0.20;0.20;;;;;;;5.92;91.62;98796.38;5494184;26;42253;-79
2024/04/21 03:41:07;;;;;;;0.30;0.30;;;;;;;5.83;91.84;98782.75;5495792;26;40726;-79
2024/04/21 03:43:36;;;;;;;0.20;0.20;;;;;;;5.92;91.60;98800.78;5495353;26;42990;-79
2024/04/21 03:46:05;;;;;;;0.30;0.30;;;;;;;5.91;91.83;98802.56;5493575;26;42755;-79
2024/04/21 03:48:32;;;;;;;0.47;0.40;;;;;;;5.72;91.96;98775.34;5492586;26;42389;-81
2024/04/21 03:51:01;;;;;;;0.30;0.30;;;;;;;5.70;91.70;98762.28;5495222;26;39905;-80
2024/04/21 03:53:27;;;;;;;0.40;0.40;;;;;;;5.73;91.57;98771.78;5495026;26;42839;-80
2024/04/21 03:55:57;;;;;;;0.30;0.30;;;;;;;5.85;91.47;98792.28;5493406;26;44019;-80
2024/04/21 03:58:26;;;;;;;0.30;0.30;;;;;;;5.85;91.35;98784.38;5494993;26;42150;-80
2024/04/21 04:00:55;;;;;;;0.30;0.30;;;;;;;5.89;91.42;98788.63;5494927;26;41086;-80
2024/04/21 04:03:21;;;;;;;0.50;0.33;;;;;;;5.98;91.37;98801.34;5495192;26;41600;-80
2024/04/21 04:05:50;;;;;;;0.27;0.27;;;;;;;5.97;91.57;98798.78;5495177;26;44006;-79
2024/04/21 04:08:17;;;;;;;0.30;0.30;;;;;;;5.90;92.08;98779.81;5524401;25;42480;-80
2024/04/21 04:10:47;;;;;;;0.40;0.40;;;;;;;5.82;92.35;98771.38;5494929;26;40115;-80
2024/04/21 04:13:14;;;;;;;0.40;0.40;;;;;;;5.80;92.68;98770.63;5493500;26;41108;-79
2024/04/21 04:15:46;;;;;;;0.40;0.40;;;;;;;5.95;92.83;98796.22;5492764;26;41241;-80
2024/04/21 04:18:12;;;;;;;0.63;0.53;;;;;;;5.89;93.09;98788.63;5462857;26;42004;-81
2024/04/21 04:20:41;;;;;;;0.40;0.40;;;;;;;5.96;92.65;98791.81;5493202;26;40005;-81
2024/04/21 04:23:08;;;;;;;0.57;0.57;;;;;;;5.87;93.66;98773.81;5497462;26;42938;-81
2024/04/21 04:25:37;;;;;;;0.40;0.40;;;;;;;5.92;93.62;98788.50;5507636;26;42908;-80
2024/04/21 04:28:04;;;;;;;0.20;0.20;;;;;;;5.80;94.38;98768.00;5496612;26;42719;-80
2024/04/21 04:30:33;;;;;;;0.40;0.40;;;;;;;5.92;94.61;98796.38;5494802;26;40202;-80
2024/04/21 04:33:02;;;;;;;0.40;0.40;;;;;;;5.91;94.54;98797.31;5494719;26;41804;-81
2024/04/21 04:35:32;;;;;;;0.40;0.40;;;;;;;5.80;94.70;98773.25;5462586;26;42948;-79
2024/04/21 04:37:58;;;;;;;0.30;0.30;;;;;;;5.89;94.43;98793.03;5462044;26;42177;-80
2024/04/21 04:40:27;;;;;;;0.63;0.40;;;;;;;5.88;94.50;98792.19;5492958;26;39831;-80
2024/04/21 04:42:55;;;;;;;0.73;0.40;;;;;;;5.85;94.59;98787.03;5494520;26;42830;-80
2024/04/21 04:45:24;;;;;;;0.83;0.33;;;;;;;5.70;94.34;98772.78;5494172;26;43013;-80
2024/04/21 04:47:51;;;;;;;0.40;0.30;;;;;;;5.69;94.01;98785.97;5492514;26;43276;-79
2024/04/21 04:50:23;;;;;;;1.17;0.40;;;;;;;5.63;94.07;98781.88;5494264;26;41278;-78
2024/04/21 04:52:55;;;;;;;0.30;0.30;;;;;;;5.60;93.67;98775.88;5492879;26;42918;-80
2024/04/21 04:55:24;;;;;;;0.40;0.40;;;;;;;5.63;93.57;98789.75;5492627;26;41882;-79
2024/04/21 04:57:51;;;;;;;0.30;0.30;;;;;;;5.67;93.83;98795.72;5494006;26;42236;-78
2024/04/21 05:00:20;;;;;;;0.30;0.30;;;;;;;5.57;93.22;98782.13;5492584;26;40129;-78
2024/04/21 05:02:46;;;;;;;0.77;0.40;;;;;;;5.54;93.50;98779.66;5493951;26;41735;-79
2024/04/21 05:05:16;;;;;;;1.40;0.40;;;;;;;5.56;93.06;98790.09;5492540;26;42926;-78
2024/04/21 05:07:45;;;;;;;0.57;0.57;;;;;;;5.53;93.14;98779.72;5491918;26;41058;-80
2024/04/21 05:10:15;;;;;;;0.40;0.40;;;;;;;5.56;92.82;98790.09;5492407;26;40156;-79
2024/04/21 05:12:42;;;;;;;0.30;0.30;;;;;;;5.62;92.88;98810.81;5492614;26;40176;-80
2024/04/21 05:15:11;;;;;;;0.83;0.40;;;;;;;5.53;92.44;98798.09;5492381;26;42976;-79
2024/04/21 05:17:38;;;;;;;0.30;0.30;;;;;;;5.63;92.26;98800.25;5461897;26;42104;-80
2024/04/21 05:20:08;;;;;;;1.37;0.40;;;;;;;5.68;91.80;98810.56;5493682;26;39901;-79
2024/04/21 05:22:35;;;;;;;0.30;0.30;;;;;;;5.75;91.87;98799.72;5494286;26;42446;-78
2024/04/21 05:25:07;;;;;;;2.23;0.40;;;;;;;5.80;91.33;98809.19;5493820;26;42926;-78
2024/04/21 05:27:34;;;;;;;0.40;0.40;;;;;;;5.67;91.25;98809.72;5492049;26;42432;-80
2024/04/21 05:30:03;;;;;;;0.40;0.40;;;;;;;5.73;91.10;98819.09;5461808;26;38713;-78
2024/04/21 05:32:30;;;;;;;0.30;0.30;;;;;;;5.65;90.91;98787.06;5494078;26;42958;-79
2024/04/21 05:34:59;;;;;;;0.53;0.30;;;;;;;5.78;90.51;98819.75;5492222;26;41789;-79
2024/04/21 05:37:25;;;;;;;0.47;0.40;;;;;;;5.83;90.74;98807.25;5493585;26;43312;-79
2024/04/21 05:39:54;;;;;;;1.10;0.40;;;;;;;5.94;90.21;98807.66;5493881;26;41328;-79
2024/04/21 05:42:23;;;;;;;0.77;0.50;;;;;;;5.99;90.04;98805.69;5492308;26;41611;-79
2024/04/21 05:44:52;;;;;;;0.87;0.50;;;;;;;6.07;89.67;98807.97;5492182;26;43551;-79
2024/04/21 05:47:19;;;;;;;0.40;0.40;;;;;;;6.15;89.59;98799.75;5493637;26;42170;-78
2024/04/21 05:49:48;;;;;;;0.73;0.43;;;;;;;6.22;89.24;98795.91;5492441;26;40181;-79
2024/04/21 05:52:15;;;;;;;0.53;0.30;;;;;;;6.36;88.82;98798.75;5461563;26;40682;-79
2024/04/21 05:54:44;;;;;;;0.50;0.40;;;;;;;6.52;88.90;98831.31;5493938;26;42879;-79
2024/04/21 05:57:10;;;;;;;0.60;0.33;;;;;;;6.53;88.11;98812.00;5493730;26;43094;-79
2024/04/21 05:59:43;;;;;;;0.67;0.50;;;;;;;6.65;87.86;98824.56;5493785;26;40937;-79
2024/04/21 06:02:09;;;;;;;0.33;0.33;;;;;;;6.63;87.77;98813.25;5493743;26;42755;-80
2024/04/21 06:04:39;;;;;;;0.33;0.30;;;;;;;6.72;87.32;98825.97;5461311;26;41418;-79
2024/04/21 06:07:06;;;;;;;0.30;0.30;;;;;;;6.72;86.17;98828.59;5493112;26;43018;-80
2024/04/21 06:09:36;;;;;;;0.40;0.40;;;;;;;6.77;85.83;98837.16;5493852;26;41094;-79
2024/04/21 06:12:03;;;;;;;0.40;0.40;;;;;;;6.67;86.02;98824.50;5492764;26;41287;-80
2024/04/21 06:14:33;;;;;;;0.30;0.30;;;;;;;6.64;86.02;98814.97;5492003;26;42471;-80
2024/04/21 06:17:03;;;;;;;0.30;0.30;;;;;;;6.85;85.51;98848.16;5491362;26;43019;-80
2024/04/21 06:19:32;;;;;;;0.50;0.30;;;;;;;6.91;85.18;98849.66;5493560;26;41257;-80
2024/04/21 06:21:58;;;;;;;0.47;0.30;;;;;;;6.93;84.83;98844.28;5493202;26;41472;-80
2024/04/21 06:24:28;;;;;;;0.40;0.30;;;;;;;6.88;85.18;98827.88;5494309;26;20281;-79
2024/04/21 06:26:55;;;;;;;0.40;0.40;;;;;;;6.87;84.84;98831.44;5490315;26;44198;-80
2024/04/21 06:29:24;;;;;;;0.53;0.40;;;;;;;6.96;84.78;98830.97;5493466;26;40382;-79
2024/04/21 06:31:51;;;;;;;0.20;0.20;;;;;;;6.96;84.41;98830.97;5492792;26;41279;-79
2024/04/21 06:34:23;;;;;;;0.30;0.30;;;;;;;7.00;83.90;98833.41;5493161;26;42910;-80
2024/04/21 06:36:49;;;;;;;0.53;0.30;;;;;;;7.19;84.03;98857.06;5492921;26;43994;-79
2024/04/21 06:39:18;;;;;;;0.20;0.20;;;;;;;7.25;84.33;98846.22;5492861;26;39696;-80
2024/04/21 06:41:46;;;;;;;0.30;0.20;;;;;;;7.29;83.19;98842.53;5492641;26;41806;-79
2024/04/21 06:44:15;;;;;;;0.20;0.20;;;;;;;7.27;82.84;98830.34;5491114;26;43947;-79
2024/04/21 06:46:41;;;;;;;0.30;0.30;;;;;;;7.53;82.94;98859.75;5492205;26;42965;-79
2024/04/21 06:49:10;;;;;;;0.30;0.30;;;;;;;7.36;82.89;98828.09;5460736;26;38624;-79
2024/04/21 06:51:40;;;;;;;0.20;0.20;;;;;;;7.65;83.06;98867.97;5492367;26;41766;-80
2024/04/21 06:54:09;;;;;;;0.20;0.20;;;;;;;7.68;82.70;98867.78;5491120;26;41298;-80
2024/04/21 06:56:35;;;;;;;0.40;0.40;;;;;;;7.64;82.47;98867.13;5492212;26;42020;-79
2024/04/21 06:59:05;;;;;;;0.30;0.30;;;;;;;7.53;82.46;98846.56;5490791;26;41227;-80
2024/04/21 07:01:31;;;;;;;0.23;0.23;;;;;;;7.39;82.07;98827.97;5492086;26;42505;-80
2024/04/21 07:04:00;;;;;;;1.03;0.30;;;;;;;7.64;81.61;98872.38;5490339;26;43002;-79
2024/04/21 07:06:27;;;;;;;0.57;0.20;;;;;;;7.53;82.31;98857.13;5491870;26;43301;-79
2024/04/21 07:08:58;;;;;;;0.30;0.30;;;;;;;7.60;82.31;98862.06;5490461;26;38641;-79
2024/04/21 07:11:25;;;;;;;0.43;0.30;;;;;;;7.70;82.29;98881.75;5490300;26;40518;-81
2024/04/21 07:13:54;;;;;;;0.30;0.30;;;;;;;7.58;82.08;98873.53;5491879;26;42675;-79
2024/04/21 07:16:21;;;;;;;0.20;0.20;;;;;;;7.66;82.25;98881.06;5490026;26;42560;-80
2024/04/21 07:18:50;;;;;;;0.20;0.20;;;;;;;7.55;82.08;98863.13;5492160;26;41062;-80
2024/04/21 07:21:16;;;;;;;1.23;0.30;;;;;;;7.67;82.09;98881.91;5492048;26;41438;-78
2024/04/21 07:23:46;;;;;;;0.40;0.40;;;;;;;7.68;82.13;98878.31;5491824;26;43003;-78
2024/04/21 07:26:16;;;;;;;0.40;0.40;;;;;;;7.69;81.97;98880.03;5495043;26;42098;-78
2024/04/21 07:28:45;;;;;;;0.30;0.30;;;;;;;7.62;81.99;98873.38;5494897;26;40171;-79
2024/04/21 07:31:11;;;;;;;0.40;0.40;;;;;;;7.56;82.50;98861.34;5493547;26;41789;-79
2024/04/21 07:33:41;;;;;;;0.30;0.30;;;;;;;7.57;81.99;98861.28;5494793;26;42805;-78
2024/04/21 07:36:07;;;;;;;0.30;0.30;;;;;;;7.78;82.32;98896.28;5462446;26;41132;-78
2024/04/21 07:38:37;;;;;;;0.30;0.20;;;;;;;7.75;82.28;98879.75;5494784;26;39834;-79
2024/04/21 07:41:03;;;;;;;0.30;0.30;;;;;;;7.85;82.54;98891.53;5493356;26;42678;-79
2024/04/21 07:43:35;;;;;;;0.47;0.30;;;;;;;7.88;82.80;98891.38;5493232;26;42641;-80
2024/04/21 07:46:02;;;;;;;0.30;0.30;;;;;;;7.77;82.50;98872.63;5493223;26;42518;-79
2024/04/21 07:48:31;;;;;;;0.20;0.20;;;;;;;7.78;82.62;98874.31;5495131;26;41262;-79
2024/04/21 07:50:57;;;;;;;0.40;0.40;;;;;;;7.87;82.88;98884.38;5493270;26;41809;-79
2024/04/21 07:53:27;;;;;;;0.50;0.50;;;;;;;7.87;83.42;98885.25;5492768;26;45520;-79
2024/04/21 07:55:53;;;;;;;0.40;0.40;;;;;;;7.91;83.03;98901.78;5492887;26;42236;-80
2024/04/21 07:58:23;;;;;;;0.40;0.40;;;;;;;7.73;83.11;98886.88;5494705;26;40007;-79
2024/04/21 08:00:52;;;;;;;0.30;0.30;;;;;;;7.68;83.19;98884.47;5494767;26;42399;-79
2024/04/21 08:03:21;;;;;;;2.30;0.90;;;;;;;7.57;83.20;98890.25;5494455;26;42537;-79
2024/04/21 08:05:48;;;;;;;1.17;1.07;;;;;;;7.55;83.21;98899.16;5494920;26;42148;-80
2024/04/21 08:08:18;;;;;;;0.50;0.50;;;;;;;7.48;82.60;98901.28;5494283;26;41003;-80
2024/04/21 08:10:44;;;;;;;0.70;0.60;;;;;;;7.55;82.36;98905.28;5493252;26;44135;-80
2024/04/21 08:13:14;;;;;;;0.70;0.70;;;;;;;7.56;82.53;98927.22;5494323;26;42819;-79
2024/04/21 08:15:40;;;;;;;0.40;0.40;;;;;;;7.37;82.71;98900.09;5493510;26;42222;-80
2024/04/21 08:18:12;;;;;;;0.57;0.57;;;;;;;7.51;83.82;98927.47;5494571;26;40155;-80
2024/04/21 08:20:38;;;;;;;0.40;0.40;;;;;;;7.48;83.96;98929.41;5493057;26;41663;-79
2024/04/21 08:23:08;;;;;;;0.40;0.40;;;;;;;7.43;83.30;98928.75;5494718;26;42786;-79
2024/04/21 08:25:35;;;;;;;0.87;0.50;;;;;;;7.27;83.04;98919.91;5462486;26;40696;-80
2024/04/21 08:28:05;;;;;;;0.40;0.40;;;;;;;7.14;83.12;98919.66;5494508;26;40302;-80
2024/04/21 08:30:31;;;;;;;0.50;0.50;;;;;;;7.06;83.12;98934.94;5494672;26;42860;-80
2024/04/21 08:33:01;;;;;;;0.40;0.40;;;;;;;7.02;83.31;98938.66;5492791;26;42824;-79
2024/04/21 08:35:30;;;;;;;0.40;0.40;;;;;;;7.00;83.16;98953.66;5494625;26;42163;-79
2024/04/21 08:38:00;;;;;;;0.40;0.40;;;;;;;6.79;83.77;98918.66;5494936;26;41162;-79
2024/04/21 08:40:26;;;;;;;0.93;0.50;;;;;;;6.85;83.96;98924.47;5494851;26;41740;-80
2024/04/21 08:43:01;;;;;;;0.30;0.30;;;;;;;6.87;83.61;98932.31;5494745;26;42802;-80
2024/04/21 08:45:29;;;;;;;0.30;0.30;;;;;;;6.91;83.61;98933.03;5492975;26;42118;-80
2024/04/21 08:47:58;;;;;;;0.40;0.40;;;;;;;6.98;84.34;98944.97;5524241;25;39875;-79
2024/04/21 08:50:26;;;;;;;0.40;0.40;;;;;;;7.01;84.11;98955.38;5493181;26;41684;-81
2024/04/21 08:52:58;;;;;;;0.57;0.57;;;;;;;6.90;84.87;98942.72;5494571;26;42736;-80
2024/04/21 08:55:29;;;;;;;1.23;0.60;;;;;;;6.85;84.70;98950.81;5493281;26;42007;-80
2024/04/21 08:57:58;;;;;;;0.80;0.80;;;;;;;6.78;84.90;98959.94;5524048;25;39960;-80
2024/04/21 09:00:26;;;;;;;0.50;0.50;;;;;;;6.71;84.57;98960.25;5492829;26;40724;-81
2024/04/21 09:02:56;;;;;;;0.60;0.60;;;;;;;6.65;83.52;98974.56;5494156;26;42834;-81
2024/04/21 09:05:23;;;;;;;0.60;0.60;;;;;;;6.41;83.90;98965.13;5492179;26;42173;-78
2024/04/21 09:07:53;;;;;;;0.60;0.60;;;;;;;6.29;83.87;98973.53;5492530;26;40427;-80
2024/04/21 09:10:22;;;;;;;0.40;0.40;;;;;;;6.24;83.21;98970.25;5494633;26;41558;-80
2024/04/21 09:12:52;;;;;;;0.73;0.60;;;;;;;6.18;83.32;98971.38;5494147;26;42704;-80
2024/04/21 09:15:18;;;;;;;0.70;0.70;;;;;;;6.19;83.35;98961.69;5494129;26;42297;-80
2024/04/21 09:17:48;;;;;;;0.80;0.67;;;;;;;6.34;82.98;98980.28;5492303;26;42305;-80
2024/04/21 09:20:14;;;;;;;0.57;0.57;;;;;;;6.25;82.65;98953.56;5493810;26;41300;-80
2024/04/21 09:22:44;;;;;;;0.70;0.70;;;;;;;6.28;82.04;98950.78;5494197;26;43077;-79
2024/04/21 09:25:10;;;;;;;0.60;0.60;;;;;;;6.28;82.78;98945.53;5492340;26;40781;-80
2024/04/21 09:27:42;;;;;;;0.60;0.60;;;;;;;6.40;82.92;98966.03;5494181;26;40666;-80
2024/04/21 09:30:09;;;;;;;0.83;0.70;;;;;;;6.55;82.93;98981.16;5492012;26;40501;-79
2024/04/21 09:32:38;;;;;;;0.43;0.43;;;;;;;6.42;82.85;98969.47;5493840;26;44037;-79
2024/04/21 09:35:06;;;;;;;0.50;0.50;;;;;;;6.31;82.29;98958.53;5492913;26;43364;-79
2024/04/21 09:37:35;;;;;;;0.57;0.50;;;;;;;6.29;82.46;98965.66;5492952;26;40024;-80
2024/04/21 09:40:02;;;;;;;0.87;0.60;;;;;;;6.06;82.85;98953.47;5494160;26;42668;-79
2024/04/21 09:42:33;;;;;;;0.50;0.50;;;;;;;6.03;82.48;98965.00;5461868;26;44520;-79
2024/04/21 09:45:05;;;;;;;0.50;0.50;;;;;;;5.96;82.36;98967.94;5493794;26;42002;-79
2024/04/21 09:47:32;;;;;;;0.47;0.47;;;;;;;5.96;81.97;98979.31;5490932;26;38794;-80
2024/04/21 09:50:04;;;;;;;0.73;0.70;;;;;;;5.94;82.16;98967.13;5494230;26;41334;-80
2024/04/21 09:52:32;;;;;;;0.57;0.53;;;;;;;6.00;82.16;98973.00;5494149;26;42938;-80
2024/04/21 09:55:01;;;;;;;0.70;0.70;;;;;;;6.02;81.90;98973.81;5493935;26;43069;-80
2024/04/21 09:57:32;;;;;;;0.80;0.80;;;;;;;6.05;82.29;98971.06;5493743;26;41252;-80
2024/04/21 10:00:07;;;;;;;0.93;0.87;;;;;;;6.08;82.32;98968.25;5493588;26;41639;-80
2024/04/21 10:02:36;;;;;;;0.70;0.70;;;;;;;6.18;82.94;98979.28;5492409;26;41469;-81
2024/04/21 10:05:08;;;;;;;0.87;0.67;;;;;;;6.25;83.25;98980.69;5493630;26;43347;-79
2024/04/21 10:07:37;;;;;;;1.33;0.77;;;;;;;6.27;83.42;98975.38;5491985;26;38718;-79
2024/04/21 10:10:11;;;;;;;1.10;1.00;;;;;;;6.25;83.49;98975.44;5493979;26;41407;-79
2024/04/21 10:12:38;;;;;;;1.00;0.90;;;;;;;6.04;83.40;98935.16;5493639;26;42898;-80
2024/04/21 10:15:13;;;;;;;2.13;0.83;;;;;;;6.31;83.29;98979.56;5491951;26;42462;-79
2024/04/21 10:17:40;;;;;;;0.90;0.90;;;;;;;6.25;82.94;98982.47;5492530;26;40099;-79
2024/04/21 10:20:10;;;;;;;1.03;0.87;;;;;;;6.15;83.08;98979.41;5494011;26;41713;-79
2024/04/21 10:22:37;;;;;;;1.17;1.00;;;;;;;6.11;83.74;98976.03;5491890;26;41734;-79
2024/04/21 10:25:07;;;;;;;1.00;0.90;;;;;;;6.02;83.70;98963.28;5491967;26;42318;-79
2024/04/21 10:27:33;;;;;;;0.90;0.70;;;;;;;6.11;83.60;98989.19;5493612;26;39795;-80
2024/04/21 10:30:17;;;;;;;1.17;0.80;;;;;;;6.07;83.93;98981.47;5493230;26;41589;-79
2024/04/21 10:32:43;;;;;;;1.10;0.70;;;;;;;6.19;84.38;99001.13;5493176;26;42641;-79
2024/04/21 10:35:23;;;;;;;0.90;0.90;;;;;;;6.21;85.12;98999.28;5491780;26;43338;-80
2024/04/21 10:37:54;;;;;;;0.60;0.60;;;;;;;6.21;84.62;99000.16;5491474;26;39650;-80
2024/04/21 10:40:24;;;;;;;0.90;0.90;;;;;;;6.11;84.30;98978.66;5491678;26;41925;-80
2024/04/21 10:42:54;;;;;;;1.30;1.00;;;;;;;6.04;85.11;98958.81;5460809;26;43221;-80
2024/04/21 10:45:28;;;;;;;1.30;1.10;;;;;;;6.32;85.15;99002.31;5491307;26;43250;-79
2024/04/21 10:47:55;;;;;;;0.90;0.90;;;;;;;6.33;84.78;99009.28;5491407;26;40326;-80
2024/04/21 10:50:24;;;;;;;1.27;1.20;;;;;;;6.21;84.73;98991.41;5492867;26;41894;-80
2024/04/21 10:52:51;;;;;;;1.20;1.10;;;;;;;6.19;85.13;98980.09;5492693;26;44074;-80
2024/04/21 10:55:22;;;;;;;0.90;0.90;;;;;;;6.18;85.32;98978.41;5491150;26;40392;-80
2024/04/21 10:57:48;;;;;;;1.00;1.00;;;;;;;6.31;85.46;98980.41;5491515;26;38863;-80
2024/04/21 11:00:17;;;;;;;1.03;1.03;;;;;;;6.43;85.71;99010.59;5495560;26;42776;-80
2024/04/21 11:02:47;;;;;;;1.27;1.17;;;;;;;6.25;85.81;98979.84;5494260;26;43974;-80
2024/04/21 11:05:17;;;;;;;1.60;1.50;;;;;;;6.30;85.99;98983.16;5495870;26;41989;-79
2024/04/21 11:07:44;;;;;;;1.27;1.17;;;;;;;6.39;85.60;98999.38;5495848;26;39517;-80
2024/04/21 11:10:13;;;;;;;1.30;1.20;;;;;;;6.47;85.65;98996.41;5494369;26;41432;-80
2024/04/21 11:12:40;;;;;;;1.40;1.30;;;;;;;6.49;85.56;98984.03;5494036;26;42941;-81
2024/04/21 11:15:09;;;;;;;2.50;1.50;;;;;;;6.61;85.81;99008.97;5494317;26;43355;-81
2024/04/21 11:17:36;;;;;;;1.53;1.43;;;;;;;6.49;85.86;98984.03;5494169;26;40317;-81
2024/04/21 11:20:08;;;;;;;1.50;1.40;;;;;;;6.45;86.02;98977.19;5493790;26;43557;-81
2024/04/21 11:22:35;;;;;;;1.70;1.60;;;;;;;6.46;86.38;98978.91;5494259;26;43225;-81
2024/04/21 11:25:04;;;;;;;1.73;1.63;;;;;;;6.55;86.28;98989.06;5496129;26;41959;-81
2024/04/21 11:27:31;;;;;;;2.40;1.53;;;;;;;6.66;86.42;98997.31;5495758;26;39967;-81
2024/04/21 11:30:00;;;;;;;1.97;1.70;;;;;;;6.53;86.57;98972.47;5493908;26;41508;-81
2024/04/21 11:32:26;;;;;;;1.70;1.60;;;;;;;6.58;86.57;98973.09;5463361;26;43348;-80
2024/04/21 11:34:56;;;;;;;1.73;1.43;;;;;;;6.60;86.79;98971.25;5494220;26;42116;-81
2024/04/21 11:37:25;;;;;;;1.73;1.63;;;;;;;6.78;86.98;98995.91;5494147;26;41160;-80
2024/04/21 11:39:54;;;;;;;1.40;1.30;;;;;;;6.70;87.12;98985.72;5493115;26;42067;-81
2024/04/21 11:42:22;;;;;;;1.90;1.60;;;;;;;6.78;87.03;98991.50;5494706;26;42884;-80
2024/04/21 11:44:52;;;;;;;2.03;1.90;;;;;;;6.71;87.43;98979.53;5494837;26;42409;-82
2024/04/21 11:47:20;;;;;;;2.33;2.13;;;;;;;6.83;87.34;99000.03;5462693;26;38811;-80